Time;durP1;ratioP1;P1;durP2;ratioP2;P2;SDS_P1;SDS_P2;PMS_P1;PMS_P2;Temp;Humidity;BMP_temperature;BMP_pressure;BME280_temperature;BME280_humidity;BME280_pressure;Samples;Min_cycle;Max_cycle;Signal;HPM_P1;HPM_P2
2021/06/01 00:00:40;;;;;;;0.22;0.22;;;;;;;16.74;44.95;100420.75;6273722;22;20031;-73
2021/06/01 00:03:06;;;;;;;0.50;0.50;;;;;;;16.76;45.00;100417.69;6275823;22;20042;-74
2021/06/01 00:05:31;;;;;;;0.55;0.30;;;;;;;16.72;45.25;100417.50;6238524;22;20019;-72
2021/06/01 00:07:56;;;;;;;0.30;0.30;;;;;;;16.72;45.70;100423.03;6247696;22;20007;-72
2021/06/01 00:10:22;;;;;;;0.30;0.30;;;;;;;16.69;45.48;100411.75;6218951;22;20014;-72
2021/06/01 00:12:47;;;;;;;0.40;0.40;;;;;;;16.63;46.14;100411.06;6273879;22;20061;-73
2021/06/01 00:15:13;;;;;;;0.52;0.52;;;;;;;16.61;46.08;100413.31;6243559;22;20004;-74
2021/06/01 00:17:38;;;;;;;0.82;0.82;;;;;;;16.55;46.14;100407.06;6249165;22;20368;-74
2021/06/01 00:20:07;;;;;;;0.57;0.57;;;;;;;16.50;46.26;100409.94;6240347;22;20034;-77
2021/06/01 00:22:32;;;;;;;0.52;0.52;;;;;;;16.47;46.43;100407.78;6221764;22;20054;-77
2021/06/01 00:24:58;;;;;;;0.43;0.43;;;;;;;16.45;46.71;100414.75;6273556;22;20008;-78
2021/06/01 00:27:24;;;;;;;0.43;0.43;;;;;;;16.45;47.13;100411.97;6270164;22;20026;-77
2021/06/01 00:29:49;;;;;;;0.38;0.32;;;;;;;16.45;47.03;100410.03;6273919;22;20003;-77
2021/06/01 00:32:15;;;;;;;0.60;0.60;;;;;;;16.45;47.18;100414.75;6220980;22;20008;-77
2021/06/01 00:34:41;;;;;;;1.00;0.90;;;;;;;16.44;47.36;100416.69;6247491;22;20030;-76
2021/06/01 00:37:06;;;;;;;0.73;0.73;;;;;;;16.39;47.76;100408.50;6273943;22;20411;-77
2021/06/01 00:39:31;;;;;;;0.60;0.60;;;;;;;16.40;47.32;100410.94;6275315;22;20307;-77
2021/06/01 00:41:57;;;;;;;1.02;1.02;;;;;;;16.37;47.92;100399.72;6273465;22;20008;-76
2021/06/01 00:44:22;;;;;;;0.77;0.77;;;;;;;16.37;47.94;100403.28;6249736;22;20008;-77
2021/06/01 00:46:48;;;;;;;0.70;0.70;;;;;;;16.36;47.96;100395.31;6272734;22;20043;-76
2021/06/01 00:49:13;;;;;;;0.80;0.80;;;;;;;16.33;48.08;100393.97;6275217;22;20003;-77
2021/06/01 00:51:39;;;;;;;0.88;0.88;;;;;;;16.28;47.61;100399.59;6245087;22;20026;-77
2021/06/01 00:54:04;;;;;;;0.40;0.40;;;;;;;16.22;47.98;100393.38;6245983;22;20430;-79
2021/06/01 00:56:31;;;;;;;0.63;0.63;;;;;;;16.18;48.49;100395.09;6251457;22;20011;-78
2021/06/01 00:58:57;;;;;;;0.45;0.43;;;;;;;16.17;48.14;100390.69;6281291;22;20008;-77
2021/06/01 01:01:23;;;;;;;0.60;0.60;;;;;;;16.17;48.21;100387.94;6250648;22;20303;-76
2021/06/01 01:03:50;;;;;;;0.40;0.40;;;;;;;16.07;48.16;100374.31;6247992;22;20090;-76
2021/06/01 01:06:48;;;;;;;0.60;0.60;;;;;;;16.12;48.65;100388.03;6248459;22;20079;-76
2021/06/01 01:09:16;;;;;;;0.50;0.50;;;;;;;16.07;48.29;100379.84;6273864;22;20035;-76
2021/06/01 01:11:55;;;;;;;0.50;0.50;;;;;;;16.09;48.76;100377.63;6275229;22;20003;-77
2021/06/01 01:14:31;;;;;;;0.70;0.70;;;;;;;16.09;48.38;100380.38;6249760;22;20000;-76
2021/06/01 01:17:11;;;;;;;1.27;1.27;;;;;;;16.13;48.49;100381.38;6274347;22;20103;-77
2021/06/01 01:19:45;;;;;;;0.57;0.57;;;;;;;16.14;48.76;100372.00;6275592;22;20065;-77
2021/06/01 01:22:11;;;;;;;1.48;0.88;;;;;;;16.12;48.79;100368.72;6247147;22;20053;-76
2021/06/01 01:24:47;;;;;;;0.75;0.75;;;;;;;16.09;48.84;100366.59;6276514;22;20038;-77
2021/06/01 01:27:22;;;;;;;0.60;0.60;;;;;;;16.13;49.37;100375.06;6246361;22;19996;-72
2021/06/01 01:29:48;;;;;;;;;;;;;;;16.15;48.60;100376.41;6245180;22;20011;-72
2021/06/01 01:32:45;;;;;;;0.60;0.60;;;;;;;16.15;49.24;100378.31;6272634;22;19949;-72
2021/06/01 01:35:11;;;;;;;0.95;0.88;;;;;;;16.13;49.51;100378.63;6269426;22;20275;-71
2021/06/01 01:37:39;;;;;;;1.00;1.00;;;;;;;16.11;48.98;100363.53;6240837;22;20079;-72
2021/06/01 01:40:06;;;;;;;0.82;0.82;;;;;;;16.11;49.26;100375.38;6245364;22;20020;-72
2021/06/01 01:42:42;;;;;;;0.93;0.93;;;;;;;16.08;49.16;100369.63;6247685;22;20039;-72
2021/06/01 01:45:18;;;;;;;0.52;0.52;;;;;;;16.04;49.14;100359.19;6243890;22;20038;-72
2021/06/01 01:50:18;;;;;;;1.25;1.00;;;;;;;16.07;49.56;100352.25;6283979;22;20035;-72
2021/06/01 01:52:44;;;;;;;0.50;0.50;;;;;;;16.10;49.29;100359.13;6243339;22;20007;-73
2021/06/01 01:55:11;;;;;;;1.20;0.95;;;;;;;16.10;49.69;100354.41;6268843;22;20008;-73
2021/06/01 01:57:38;;;;;;;0.85;0.85;;;;;;;16.09;49.72;100355.56;6271388;22;20011;-72
2021/06/01 02:00:16;;;;;;;0.77;0.77;;;;;;;16.13;49.07;100355.75;6245207;22;20020;-72
2021/06/01 02:02:44;;;;;;;0.57;0.57;;;;;;;16.10;49.21;100362.69;6271558;22;20361;-72
2021/06/01 02:05:10;;;;;;;0.70;0.70;;;;;;;16.09;49.50;100350.03;6245886;22;20043;-72
2021/06/01 02:07:36;;;;;;;0.95;0.95;;;;;;;16.09;49.53;100354.72;6273551;22;19992;-72
2021/06/01 02:10:06;;;;;;;0.82;0.82;;;;;;;16.10;49.77;100350.84;6243793;22;20000;-72
2021/06/01 02:12:32;;;;;;;0.75;0.75;;;;;;;16.06;49.48;100350.63;6247303;22;20018;-73
2021/06/01 02:14:58;;;;;;;0.40;0.40;;;;;;;16.02;49.25;100352.38;6272077;22;20474;-72
2021/06/01 02:17:23;;;;;;;0.40;0.40;;;;;;;15.97;49.01;100341.44;6246455;22;20061;-71
2021/06/01 02:19:49;;;;;;;0.70;0.70;;;;;;;15.93;49.79;100346.75;6244230;22;20453;-72
2021/06/01 02:22:24;;;;;;;0.52;0.52;;;;;;;15.87;49.59;100342.41;6241299;23;20349;-72
2021/06/01 02:25:13;;;;;;;1.13;0.55;;;;;;;15.88;49.67;100341.31;6236246;22;20083;-72
2021/06/01 02:27:41;;;;;;;0.70;0.70;;;;;;;15.83;49.99;100342.22;6242079;23;20000;-73
2021/06/01 02:30:17;;;;;;;0.70;0.70;;;;;;;15.80;49.72;100342.84;6238375;22;20000;-71
2021/06/01 02:32:56;;;;;;;1.08;0.98;;;;;;;15.74;49.70;100344.03;6242212;22;20079;-72
2021/06/01 02:35:35;;;;;;;0.57;0.57;;;;;;;15.69;49.34;100341.34;6234924;22;20010;-72
2021/06/01 02:38:04;;;;;;;0.63;0.63;;;;;;;15.62;50.00;100340.91;6244143;22;20001;-70
2021/06/01 02:40:32;;;;;;;0.30;0.30;;;;;;;15.57;50.19;100338.25;6238050;23;20494;-71
2021/06/01 02:43:03;;;;;;;0.50;0.50;;;;;;;15.48;50.05;100325.16;6241561;22;20000;-71
2021/06/01 02:45:30;;;;;;;0.50;0.50;;;;;;;15.44;50.18;100329.63;6237997;23;20642;-71
2021/06/01 02:47:56;;;;;;;0.32;0.32;;;;;;;15.42;50.06;100329.13;6216538;23;20027;-71
2021/06/01 02:50:23;;;;;;;0.70;0.70;;;;;;;15.44;50.66;100329.63;6232135;23;20012;-72
2021/06/01 02:52:50;;;;;;;0.57;0.57;;;;;;;15.42;50.54;100331.03;6239177;22;20004;-72
2021/06/01 02:55:18;;;;;;;0.65;0.65;;;;;;;15.39;50.92;100318.72;6244250;22;20018;-72
2021/06/01 02:57:45;;;;;;;0.70;0.70;;;;;;;15.35;50.68;100314.91;6234114;23;20411;-72
2021/06/01 03:00:14;;;;;;;0.60;0.60;;;;;;;15.36;50.52;100311.03;6239545;23;20039;-72
2021/06/01 03:02:40;;;;;;;0.60;0.60;;;;;;;15.33;50.53;100306.13;6241553;22;20032;-73
2021/06/01 03:05:06;;;;;;;1.00;1.00;;;;;;;15.30;50.69;100307.56;6236786;22;20427;-71
2021/06/01 03:07:32;;;;;;;0.60;0.60;;;;;;;15.35;50.41;100309.41;6240129;23;20014;-73
2021/06/01 03:09:57;;;;;;;0.68;0.68;;;;;;;15.36;50.47;100311.03;6239626;22;20031;-71
2021/06/01 03:14:48;;;;;;;0.45;0.45;;;;;;;15.32;50.76;100302.56;6242502;22;20036;-72
2021/06/01 03:17:15;;;;;;;0.50;0.50;;;;;;;15.34;51.04;100303.06;6238390;23;20008;-73
2021/06/01 03:19:40;;;;;;;0.80;0.80;;;;;;;15.31;50.45;100300.09;6243105;22;20019;-73
2021/06/01 03:22:06;;;;;;;1.38;1.27;;;;;;;15.33;50.78;100311.63;6232520;22;20091;-73
2021/06/01 03:24:32;;;;;;;0.70;0.70;;;;;;;15.33;51.14;100306.13;6190798;23;20347;-73
2021/06/01 03:26:58;;;;;;;0.65;0.65;;;;;;;15.32;50.93;100305.31;6241998;22;20436;-73
2021/06/01 03:29:23;;;;;;;0.60;0.60;;;;;;;15.28;50.92;100297.94;6238968;22;20008;-73
2021/06/01 03:31:50;;;;;;;0.60;0.60;;;;;;;15.24;51.09;100302.41;6241457;23;20304;-72
2021/06/01 03:34:15;;;;;;;0.65;0.47;;;;;;;15.18;50.69;100294.22;6242389;23;20004;-72
2021/06/01 03:36:41;;;;;;;0.40;0.40;;;;;;;15.14;50.66;100293.22;6242037;22;20004;-72
2021/06/01 03:39:08;;;;;;;1.00;1.00;;;;;;;15.09;51.07;100296.03;6216078;23;20518;-72
2021/06/01 03:41:35;;;;;;;8.23;0.82;;;;;;;15.09;50.70;100293.28;6216453;23;20012;-72
2021/06/01 03:44:00;;;;;;;0.57;0.57;;;;;;;14.99;50.95;100290.69;6239258;22;20007;-71
2021/06/01 03:46:26;;;;;;;0.43;0.43;;;;;;;14.95;51.61;100298.75;6240328;23;20000;-71
2021/06/01 03:48:51;;;;;;;0.70;0.70;;;;;;;14.88;51.72;100294.69;6240683;23;20012;-71
2021/06/01 03:51:16;;;;;;;1.05;1.02;;;;;;;14.83;51.66;100293.69;6237447;23;20008;-72
2021/06/01 03:53:42;;;;;;;0.70;0.70;;;;;;;14.77;51.77;100289.34;6240505;23;20007;-72
2021/06/01 03:56:07;;;;;;;0.63;0.63;;;;;;;14.77;51.89;100299.56;6237470;23;20011;-72
2021/06/01 03:58:33;;;;;;;0.75;0.75;;;;;;;14.73;51.72;100288.31;6240390;23;20008;-72
2021/06/01 04:00:59;;;;;;;0.70;0.70;;;;;;;14.76;51.86;100287.72;6211103;23;20004;-72
2021/06/01 04:03:24;;;;;;;0.90;0.90;;;;;;;14.75;52.28;100283.34;6239847;23;20014;-72
2021/06/01 04:05:49;;;;;;;1.23;1.23;;;;;;;14.77;52.07;100289.34;6214937;23;20004;-72
2021/06/01 04:08:15;;;;;;;0.68;0.65;;;;;;;14.71;51.86;100284.22;6233904;22;20008;-72
2021/06/01 04:10:40;;;;;;;1.58;0.80;;;;;;;14.73;51.94;100288.31;6189994;23;20008;-72
2021/06/01 04:13:06;;;;;;;0.52;0.52;;;;;;;14.68;52.29;100282.88;6212246;23;20035;-72
2021/06/01 04:15:31;;;;;;;0.70;0.70;;;;;;;14.68;52.37;100284.81;6231761;22;20076;-72
2021/06/01 04:17:57;;;;;;;1.13;1.13;;;;;;;14.71;52.65;100290.53;6242908;22;20016;-72
2021/06/01 04:20:24;;;;;;;0.80;0.80;;;;;;;14.73;52.54;100285.53;6211283;23;20023;-72
2021/06/01 04:22:50;;;;;;;0.70;0.70;;;;;;;14.75;52.90;100294.34;6237509;22;20015;-73
2021/06/01 04:25:16;;;;;;;1.63;1.52;;;;;;;14.76;52.39;100289.66;6239114;23;20019;-72
2021/06/01 04:27:41;;;;;;;1.35;1.35;;;;;;;14.79;52.86;100292.63;6243147;22;20431;-72
2021/06/01 04:30:10;;;;;;;1.20;1.20;;;;;;;14.85;52.31;100296.13;6186560;23;20036;-72
2021/06/01 04:32:35;;;;;;;1.60;1.50;;;;;;;14.91;52.56;100291.34;6241895;23;20008;-72
2021/06/01 04:35:01;;;;;;;1.38;1.30;;;;;;;14.95;52.26;100289.63;6240697;23;20022;-71
2021/06/01 04:37:26;;;;;;;1.65;1.55;;;;;;;15.03;52.98;100288.97;6236831;22;20082;-71
2021/06/01 04:39:52;;;;;;;1.20;1.20;;;;;;;15.09;52.31;100290.53;6238938;23;20020;-72
2021/06/01 04:42:17;;;;;;;0.93;0.93;;;;;;;15.11;52.19;100293.81;6234083;22;20375;-72
2021/06/01 04:44:43;;;;;;;1.40;1.30;;;;;;;15.13;52.52;100288.81;6208083;23;20091;-72
2021/06/01 04:47:09;;;;;;;0.82;0.82;;;;;;;15.15;52.14;100294.81;6212230;23;20008;-72
2021/06/01 04:49:37;;;;;;;1.20;1.10;;;;;;;15.15;52.27;100278.31;6228419;22;20506;-73
2021/06/01 04:52:05;;;;;;;0.90;0.90;;;;;;;15.27;52.00;100290.78;6213342;23;20099;-72
2021/06/01 04:54:31;;;;;;;1.02;0.93;;;;;;;15.33;51.77;100290.44;6237355;23;20004;-72
2021/06/01 04:56:57;;;;;;;1.27;1.23;;;;;;;15.38;52.04;100292.25;6233176;22;20000;-72
2021/06/01 04:59:22;;;;;;;0.95;0.95;;;;;;;15.43;51.59;100289.41;6240924;22;20065;-72
2021/06/01 05:01:48;;;;;;;1.17;1.17;;;;;;;15.47;51.81;100290.44;6233819;23;20094;-73
2021/06/01 05:04:13;;;;;;;2.25;1.58;;;;;;;15.49;52.31;100282.72;6239752;23;20019;-74
2021/06/01 05:06:38;;;;;;;1.00;1.00;;;;;;;15.57;51.72;100283.94;6239287;22;20004;-73
2021/06/01 05:09:05;;;;;;;1.52;1.35;;;;;;;15.61;51.71;100286.91;6242675;22;20015;-73
2021/06/01 05:11:32;;;;;;;2.00;1.90;;;;;;;15.67;51.93;100288.47;6214705;23;20375;-73
2021/06/01 05:13:57;;;;;;;2.00;1.80;;;;;;;15.75;52.29;100286.94;6245660;23;20011;-73
2021/06/01 05:16:23;;;;;;;2.13;2.03;;;;;;;15.85;51.58;100281.25;6239615;23;20319;-73
2021/06/01 05:18:49;;;;;;;2.58;2.30;;;;;;;15.93;52.11;100279.72;6242571;22;20015;-73
2021/06/01 05:21:15;;;;;;;2.00;1.90;;;;;;;16.01;51.27;100281.78;6210172;22;20100;-73
2021/06/01 05:23:40;;;;;;;1.80;1.70;;;;;;;16.06;51.57;100278.91;6235852;23;20445;-71
2021/06/01 05:26:06;;;;;;;2.22;2.13;;;;;;;16.14;51.60;100278.19;6211496;23;20009;-72
2021/06/01 05:28:32;;;;;;;1.50;1.50;;;;;;;16.18;51.00;100279.22;6208284;23;20432;-71
2021/06/01 05:32:06;;;;;;;4.40;1.85;;;;;;;16.27;51.09;100284.03;6211613;23;20012;-71
2021/06/01 05:34:05;;;;;;;2.15;1.88;;;;;;;16.34;50.73;100287.16;6195894;23;20008;-71
2021/06/01 05:36:30;;;;;;;1.65;1.55;;;;;;;16.36;51.06;100271.94;6212032;23;20128;-72
2021/06/01 05:38:56;;;;;;;1.77;1.67;;;;;;;16.45;51.20;100269.28;6159959;23;20096;-73
2021/06/01 05:41:21;;;;;;;1.75;1.65;;;;;;;16.52;50.73;100264.16;6206202;23;20419;-72
2021/06/01 05:43:49;;;;;;;1.40;1.40;;;;;;;16.61;50.90;100266.19;6208005;23;20097;-73
2021/06/01 05:46:14;;;;;;;3.42;1.88;;;;;;;16.74;50.87;100273.63;6207745;23;20001;-72
2021/06/01 05:48:40;;;;;;;2.42;2.08;;;;;;;16.83;50.63;100266.22;6206584;23;20011;-72
2021/06/01 05:51:06;;;;;;;2.38;2.20;;;;;;;16.92;50.50;100263.56;6233722;23;20475;-73
2021/06/01 05:53:32;;;;;;;3.25;3.05;;;;;;;17.04;50.68;100254.69;6208248;23;20079;-71
2021/06/01 05:55:57;;;;;;;5.20;2.25;;;;;;;17.11;50.32;100260.59;6207547;23;20374;-72
2021/06/01 05:58:23;;;;;;;2.00;1.90;;;;;;;17.09;49.70;100260.13;6181692;23;20020;-72
2021/06/01 06:00:50;;;;;;;1.77;1.67;;;;;;;17.07;50.11;100262.38;6211076;23;20058;-72
2021/06/01 06:03:16;;;;;;;2.20;2.10;;;;;;;17.05;49.99;100264.63;6180167;23;20380;-72
2021/06/01 06:05:48;;;;;;;2.22;2.00;;;;;;;16.97;50.42;100259.84;6210352;23;20095;-76
2021/06/01 06:08:22;;;;;;;2.00;1.60;;;;;;;16.93;50.39;100268.75;6209624;23;20013;-73
2021/06/01 06:10:49;;;;;;;2.03;1.92;;;;;;;16.91;50.52;100262.75;6213420;23;20095;-74
2021/06/01 06:13:17;;;;;;;2.80;1.67;;;;;;;16.82;50.76;100249.97;6208878;23;20012;-76
2021/06/01 06:15:44;;;;;;;2.40;2.30;;;;;;;16.90;51.04;100269.38;6234932;23;20009;-74
2021/06/01 06:18:14;;;;;;;2.45;2.08;;;;;;;16.92;51.11;100267.16;6182945;23;20004;-73
2021/06/01 06:20:39;;;;;;;2.03;1.83;;;;;;;16.92;51.25;100261.63;6212563;23;20027;-75
2021/06/01 06:23:05;;;;;;;1.20;1.20;;;;;;;17.04;50.93;100268.50;6239388;22;20381;-74
2021/06/01 06:25:30;;;;;;;2.40;1.40;;;;;;;17.10;50.75;100257.03;6241108;23;20016;-74
2021/06/01 06:27:56;;;;;;;1.70;1.60;;;;;;;17.18;50.81;100262.94;6241108;22;20774;-72
2021/06/01 06:30:24;;;;;;;2.42;1.40;;;;;;;17.22;51.10;100259.22;6243508;22;20015;-75
2021/06/01 06:32:50;;;;;;;1.55;1.10;;;;;;;17.33;50.83;100254.25;6212298;23;20008;-75
2021/06/01 06:35:16;;;;;;;2.00;1.90;;;;;;;17.47;50.45;100258.91;6216330;23;20019;-74
2021/06/01 06:37:42;;;;;;;2.30;1.70;;;;;;;17.50;50.79;100259.06;6242544;23;20008;-74
2021/06/01 06:40:09;;;;;;;1.98;1.63;;;;;;;17.57;50.42;100262.19;6215147;23;20031;-75
2021/06/01 06:42:36;;;;;;;1.67;1.58;;;;;;;17.63;50.72;100263.69;6242556;23;20070;-73
2021/06/01 06:45:03;;;;;;;1.77;1.67;;;;;;;17.71;50.51;100261.28;6229969;23;20016;-73
2021/06/01 06:47:43;;;;;;;1.83;1.73;;;;;;;17.77;50.63;100257.25;6242155;22;20027;-73
2021/06/01 06:50:10;;;;;;;1.67;1.50;;;;;;;17.85;50.61;100256.47;6238619;23;20097;-73
2021/06/01 06:52:36;;;;;;;1.05;1.00;;;;;;;17.92;50.13;100245.78;6240972;23;20050;-73
2021/06/01 06:55:05;;;;;;;1.98;1.88;;;;;;;18.07;50.25;100254.81;6212715;23;20618;-73
2021/06/01 06:57:35;;;;;;;1.27;1.17;;;;;;;18.12;50.48;100255.47;6243817;22;20000;-73
2021/06/01 07:00:04;;;;;;;2.05;1.92;;;;;;;18.20;50.37;100253.84;6241420;23;20008;-73
2021/06/01 07:02:32;;;;;;;1.48;1.48;;;;;;;18.23;50.65;100246.88;6242656;22;20008;-73
2021/06/01 07:05:03;;;;;;;4.05;1.42;;;;;;;18.26;50.48;100241.50;6242640;22;20030;-73
2021/06/01 07:07:28;;;;;;;1.95;1.85;;;;;;;18.40;50.19;100243.31;6214250;23;20011;-72
2021/06/01 07:09:56;;;;;;;1.77;1.67;;;;;;;18.44;50.27;100247.06;6240404;23;20008;-72
2021/06/01 07:12:22;;;;;;;2.63;2.40;;;;;;;18.58;50.07;100253.28;6243303;22;20008;-72
2021/06/01 07:14:59;;;;;;;1.80;1.70;;;;;;;18.59;50.28;100240.25;6243731;23;20006;-73
2021/06/01 07:17:25;;;;;;;3.38;2.40;;;;;;;18.63;50.47;100244.81;6239693;23;20011;-74
2021/06/01 07:19:54;;;;;;;1.80;1.70;;;;;;;18.74;50.22;100250.03;6235464;23;20016;-72
2021/06/01 07:22:20;;;;;;;2.15;1.95;;;;;;;18.83;49.93;100248.88;6250035;22;20008;-72
2021/06/01 07:24:50;;;;;;;1.98;1.88;;;;;;;18.91;49.57;100255.59;6274509;22;20046;-73
2021/06/01 07:27:18;;;;;;;2.25;2.15;;;;;;;18.95;49.48;100250.22;6246116;22;20378;-73
2021/06/01 07:29:43;;;;;;;2.10;2.00;;;;;;;19.02;49.46;100253.31;6274400;22;20000;-73
2021/06/01 07:32:11;;;;;;;2.00;1.90;;;;;;;19.09;49.69;100250.06;6266512;22;20330;-73
2021/06/01 07:34:39;;;;;;;2.03;1.88;;;;;;;19.21;49.42;100258.50;6274782;22;19999;-73
2021/06/01 07:37:04;;;;;;;2.58;1.90;;;;;;;19.39;49.56;100264.00;6247624;22;20018;-74
2021/06/01 07:39:30;;;;;;;1.73;1.63;;;;;;;19.42;49.53;100257.81;6247098;22;20109;-73
2021/06/01 07:41:55;;;;;;;2.15;2.05;;;;;;;19.55;49.29;100267.88;6274733;22;20031;-73
2021/06/01 07:44:24;;;;;;;1.65;1.55;;;;;;;19.56;49.16;100247.34;6264497;22;20425;-73
2021/06/01 07:46:52;;;;;;;3.20;1.50;;;;;;;19.71;49.18;100255.13;6220623;22;20031;-73
2021/06/01 07:49:19;;;;;;;1.13;1.10;;;;;;;19.87;48.78;100257.34;6233552;22;20035;-72
2021/06/01 07:51:48;;;;;;;1.73;1.63;;;;;;;19.97;48.54;100251.44;6217639;22;20073;-73
2021/06/01 07:54:35;;;;;;;;;;;;;;;;;;;;;
2021/06/01 07:57:07;;;;;;;1.70;1.60;;;;;;;20.21;47.83;100244.47;6273049;22;20383;-73
2021/06/01 07:59:35;;;;;;;1.80;1.70;;;;;;;20.29;47.98;100240.00;6224088;22;20022;-73
2021/06/01 08:02:44;;;;;;;;;;;;;;;;;;;;;
2021/06/01 08:05:18;;;;;;;1.52;1.42;;;;;;;20.54;48.16;100252.88;6142796;22;20081;-74
2021/06/01 08:10:56;;;;;;;;;;;;;;;;;;;;;
2021/06/01 08:13:25;;;;;;;2.05;1.95;;;;;;;20.93;47.22;100253.59;6276040;22;20082;-73
2021/06/01 08:15:53;;;;;;;3.95;2.42;;;;;;;20.85;47.49;100228.66;6274063;22;20079;-73
2021/06/01 08:18:23;;;;;;;2.10;2.00;;;;;;;20.94;47.56;100221.09;6246382;22;20009;-73
2021/06/01 08:20:57;;;;;;;1.38;1.20;;;;;;;21.19;47.46;100243.41;6247066;22;20389;-72
2021/06/01 08:23:25;;;;;;;1.48;1.38;;;;;;;21.34;47.19;100245.53;6245291;22;20165;-72
2021/06/01 08:26:01;;;;;;;;;;;;;;;;;;;;;
2021/06/01 08:28:27;;;;;;;1.60;1.50;;;;;;;21.40;45.72;100233.03;6274381;22;20075;-73
2021/06/01 08:31:00;;;;;;;5.40;1.30;;;;;;;21.54;46.24;100234.72;6222617;22;20038;-74
2021/06/01 08:33:26;;;;;;;1.08;1.08;;;;;;;21.66;45.80;100234.72;6269210;22;20422;-73
2021/06/01 08:35:51;;;;;;;1.48;1.38;;;;;;;21.82;45.22;100234.06;6274917;22;20014;-74
2021/06/01 08:38:21;;;;;;;1.48;1.38;;;;;;;21.87;44.35;100228.25;6248556;22;20065;-73
2021/06/01 08:41:02;;;;;;;;;;;;;;;;;;;;;
2021/06/01 08:43:28;;;;;;;1.10;1.10;;;;;;;22.00;43.61;100223.50;6273493;22;20074;-74
2021/06/01 08:46:30;;;;;;;1.25;1.25;;;;;;;22.23;43.65;100234.97;6247343;22;20042;-72
2021/06/01 08:49:29;;;;;;;;;;;;;;;;;;;;;
2021/06/01 08:51:51;;;;;;;1.40;1.30;;;;;;;22.32;42.92;100210.63;6263874;22;19999;-74
2021/06/01 08:54:26;;;;;;;1.40;1.30;;;;;;;22.46;42.93;100210.25;6246802;22;20004;-74
2021/06/01 08:57:02;;;;;;;1.63;1.52;;;;;;;22.57;42.45;100205.00;6248882;22;19995;-74
2021/06/01 08:59:27;;;;;;;2.60;1.38;;;;;;;22.70;42.11;100205.75;6250643;22;20010;-75
2021/06/01 09:01:53;;;;;;;1.60;1.50;;;;;;;22.91;41.60;100227.84;6276038;22;20000;-76
2021/06/01 09:04:18;;;;;;;3.28;1.52;;;;;;;22.96;41.50;100217.25;6251000;22;20018;-73
2021/06/01 09:06:47;;;;;;;3.05;1.30;;;;;;;23.04;40.76;100212.69;6220290;22;20414;-73
2021/06/01 09:09:45;;;;;;;1.88;1.77;;;;;;;23.13;40.87;100216.19;6249505;22;20027;-72
2021/06/01 09:12:23;;;;;;;1.52;1.42;;;;;;;23.26;40.71;100219.72;6271185;22;20661;-74
2021/06/01 09:15:19;;;;;;;1.25;1.15;;;;;;;23.33;40.27;100230.25;6255257;22;20102;-73
2021/06/01 09:23:16;;;;;;;1.45;1.35;;;;;;;23.57;38.54;100222.88;6210890;23;20046;-74
2021/06/01 09:26:01;;;;;;;;;;;;;;;;;;;;;
2021/06/01 09:28:29;;;;;;;1.45;1.35;;;;;;;23.67;38.35;100227.91;6212870;23;20464;-73
2021/06/01 09:31:03;;;;;;;1.35;1.13;;;;;;;23.55;38.34;100202.91;6236538;23;20008;-74
2021/06/01 09:33:43;;;;;;;;;;;;;;;;;;;;;
2021/06/01 09:36:39;;;;;;;;;;;;;;;;;;;;;
2021/06/01 09:39:08;;;;;;;0.77;0.77;;;;;;;23.89;38.13;100201.41;6214110;23;20091;-74
2021/06/01 09:41:36;;;;;;;0.77;0.77;;;;;;;24.06;37.91;100216.94;6209138;23;20092;-73
2021/06/01 09:44:07;;;;;;;1.38;1.00;;;;;;;24.16;36.06;100216.38;6212651;23;20025;-73
2021/06/01 09:46:45;;;;;;;;;;;;;;;;;;;;;
2021/06/01 09:49:14;;;;;;;1.08;1.08;;;;;;;24.43;35.65;100219.41;6212158;23;20087;-73
2021/06/01 09:52:15;;;;;;;0.70;0.70;;;;;;;24.47;35.90;100209.09;6234837;23;20013;-72
2021/06/01 09:54:55;;;;;;;0.77;0.77;;;;;;;24.72;35.52;100225.63;6204367;23;20089;-73
2021/06/01 09:57:29;;;;;;;0.90;0.85;;;;;;;24.81;35.79;100211.41;6213590;23;20001;-72
2021/06/01 10:00:16;;;;;;;0.70;0.70;;;;;;;25.23;35.54;100221.81;6214952;23;20440;-73
2021/06/01 10:02:43;;;;;;;0.73;0.73;;;;;;;25.54;34.52;100209.63;6214253;23;20903;-73
2021/06/01 10:08:42;;;;;;;1.23;0.95;;;;;;;27.33;33.65;100223.75;6208617;23;20012;-74
2021/06/01 10:11:12;;;;;;;0.55;0.55;;;;;;;28.13;32.19;100228.09;6208207;23;20008;-72
2021/06/01 10:13:39;;;;;;;1.20;1.10;;;;;;;28.90;31.32;100226.09;6211191;23;19997;-72
2021/06/01 10:16:11;;;;;;;1.88;0.88;;;;;;;29.93;30.83;100217.44;6216669;23;20005;-73
2021/06/01 10:18:40;;;;;;;2.75;1.05;;;;;;;30.98;27.95;100213.09;6213606;23;20305;-74
2021/06/01 10:24:07;;;;;;;0.60;0.60;;;;;;;32.93;26.77;100211.41;6253663;22;20022;-72
2021/06/01 10:26:35;;;;;;;8.13;0.90;;;;;;;33.74;23.82;100207.00;6254894;22;20402;-73
2021/06/01 10:29:08;;;;;;;1.17;0.43;;;;;;;34.59;23.73;100200.97;6272999;22;20019;-74
2021/06/01 10:31:40;;;;;;;0.50;0.50;;;;;;;35.55;23.41;100201.28;6299885;22;20006;-73
2021/06/01 10:34:19;;;;;;;0.60;0.60;;;;;;;36.68;21.62;100198.66;6300574;22;20103;-74
2021/06/01 10:53:03;;;;;;;0.55;0.40;;;;;;;41.33;15.78;100200.59;6272899;22;20359;-73
2021/06/01 10:55:51;;;;;;;0.40;0.40;;;;;;;42.08;15.17;100206.66;6248910;22;20011;-74
2021/06/01 10:58:44;;;;;;;0.65;0.30;;;;;;;42.70;14.56;100202.13;6249437;22;19999;-74
2021/06/01 11:07:26;;;;;;;3.35;0.47;;;;;;;43.98;12.66;100182.06;6274910;22;20361;-72
2021/06/01 11:09:52;;;;;;;0.60;0.50;;;;;;;44.08;13.31;100169.84;6247816;22;20385;-73
2021/06/01 11:12:27;;;;;;;1.13;0.32;;;;;;;44.69;13.24;100167.34;6248992;22;20134;-73
2021/06/01 11:14:58;;;;;;;0.50;0.50;;;;;;;44.81;11.86;100168.22;6279337;22;20023;-74
2021/06/01 11:17:41;;;;;;;0.55;0.55;;;;;;;45.01;11.65;100178.84;6257097;22;19995;-72
2021/06/01 11:20:24;;;;;;;0.70;0.47;;;;;;;45.02;11.57;100155.25;6254402;22;20004;-74
2021/06/01 11:35:01;;;;;;;0.75;0.50;;;;;;;46.74;10.24;100152.50;6275771;22;20504;-73
2021/06/01 11:37:36;;;;;;;0.75;0.40;;;;;;;46.47;9.70;100137.50;6247491;22;19996;-74
2021/06/01 11:51:55;;;;;;;0.30;0.30;;;;;;;46.74;9.63;100158.28;6272697;22;20011;-73
2021/06/01 11:54:23;;;;;;;0.45;0.30;;;;;;;47.07;9.38;100165.34;6246054;22;20422;-73
2021/06/01 11:57:00;;;;;;;0.43;0.43;;;;;;;46.95;8.38;100161.66;6247811;22;20007;-73
2021/06/01 12:19:11;;;;;;;0.38;0.30;;;;;;;46.77;9.08;100145.66;6151797;23;20092;-74
2021/06/01 12:21:48;;;;;;;0.20;0.20;;;;;;;47.05;9.02;100136.94;6250546;22;20024;-74
2021/06/01 12:24:24;;;;;;;0.30;0.30;;;;;;;47.45;9.18;100137.66;6273650;22;20057;-74
2021/06/01 12:32:17;;;;;;;0.57;0.45;;;;;;;47.63;8.90;100121.75;6274344;22;20062;-74
2021/06/01 12:41:41;;;;;;;0.30;0.30;;;;;;;47.43;8.70;100127.91;6284702;22;20082;-74
2021/06/01 12:46:15;;;;;;;0.50;0.50;;;;;;;47.94;8.54;100128.47;6273353;22;20119;-73
2021/06/01 13:36:47;;;;;;;0.45;0.30;;;;;;;50.18;6.87;100084.38;6283028;22;19999;-73
2021/06/01 13:39:48;;;;;;;0.83;0.43;;;;;;;49.82;6.43;100067.22;6225489;22;20004;-73
2021/06/01 13:51:31;;;;;;;2.30;0.40;;;;;;;48.92;7.14;100045.94;6284516;22;20019;-74
2021/06/01 13:56:44;;;;;;;0.47;0.47;;;;;;;47.65;7.27;100055.44;6251319;22;20057;-73
2021/06/01 14:21:35;;;;;;;;;;;;;;;;;;;;;
2021/06/01 15:50:03;;;;;;;;;;;;;;;39.75;10.26;99976.84;6256525;22;20070;-73
2021/06/01 15:53:20;;;;;;;0.30;0.30;;;;;;;39.22;11.19;99962.84;6274219;22;20419;-73
2021/06/01 16:15:01;;;;;;;2.15;0.60;;;;;;;43.23;9.11;99967.38;6286438;22;20429;-72
2021/06/01 16:23:05;;;;;;;0.68;0.30;;;;;;;42.24;9.03;99946.94;6270008;22;20084;-71
2021/06/01 16:42:18;;;;;;;0.38;0.30;;;;;;;41.48;9.08;99944.56;6263404;22;20386;-73
2021/06/01 17:04:34;;;;;;;0.65;0.55;;;;;;;40.68;9.84;99956.44;6270244;22;20081;-72
2021/06/01 17:07:29;;;;;;;0.50;0.50;;;;;;;40.36;9.97;99930.19;6262158;22;20357;-73
2021/06/01 17:12:50;;;;;;;2.15;0.47;;;;;;;39.01;10.63;99942.50;6268741;22;20042;-72
2021/06/01 17:15:19;;;;;;;0.90;0.40;;;;;;;38.58;11.04;99941.44;6239979;22;20041;-73
2021/06/01 17:17:53;;;;;;;0.50;0.50;;;;;;;38.06;11.12;99949.66;6270962;22;20073;-73
2021/06/01 17:36:54;;;;;;;2.13;1.10;;;;;;;34.05;14.65;99931.72;6261256;22;20026;-73
2021/06/01 17:39:20;;;;;;;0.50;0.50;;;;;;;33.90;14.87;99936.94;6271986;22;20037;-73
2021/06/01 17:41:52;;;;;;;0.60;0.60;;;;;;;33.60;14.91;99930.25;6240853;22;20151;-73
2021/06/01 17:44:24;;;;;;;0.40;0.40;;;;;;;33.38;15.26;99936.34;6269368;22;20023;-73